Weil, Louisiana
Current Conditions -  °F | °C
As of 11:53 PM on Tuesday 21 Oct 2014 (Local Time) from KAEX Reporting Station
Clear Clear  
Wind Chill: 64°   Ceiling: Unl
Heat Index: 64°   Visibility: 9mi
Dew Point: 60°   Wind: 5mph
Humidity: 87%   Direction: 20°NNE
Pressure: 30.04"   Gusts: NA
Location:  31.2912°N, 92.5491°W
Report Text: KAEX 220453Z AUTO 02004KT 9SM CLR 18/16 A3004 RMK AO2 SLP175 T01780156
Loading
Personal Weather Stations






























Interactive Weather Map
Tropical Storm Tracking
New forecast layout! Learn more

10-Day Weather Forecast

Advertisements
Track Severe Weather on mobile